Time;durP1;ratioP1;P1;durP2;ratioP2;P2;SDS_P1;SDS_P2;PMS_P1;PMS_P2;Temp;Humidity;BMP_temperature;BMP_pressure;BME280_temperature;BME280_humidity;BME280_pressure;Samples;Min_cycle;Max_cycle;Signal;HPM_P1;HPM_P2
2023/06/07 00:01:06;;;;;;;3.03;1.80;;;24.70;40.10;;;;;;5048207;28;20123;-61
2023/06/07 00:03:36;;;;;;;3.90;2.13;;;24.70;40.10;;;;;;5051279;28;20073;-64
2023/06/07 00:06:03;;;;;;;2.25;1.73;;;24.70;40.10;;;;;;5056796;28;20056;-63
2023/06/07 00:08:30;;;;;;;2.90;1.60;;;24.70;40.10;;;;;;5057716;28;20067;-64
2023/06/07 00:10:56;;;;;;;2.85;1.63;;;24.70;40.10;;;;;;5048756;28;20438;-65
2023/06/07 00:13:22;;;;;;;1.83;1.45;;;24.70;40.20;;;;;;5040313;28;20130;-62
2023/06/07 00:15:48;;;;;;;2.45;1.60;;;24.70;40.20;;;;;;5061717;28;20368;-61
2023/06/07 00:18:15;;;;;;;3.05;1.40;;;24.70;40.20;;;;;;5058772;28;20440;-64
2023/06/07 00:20:45;;;;;;;3.28;1.70;;;24.70;40.20;;;;;;5040390;28;20047;-64
2023/06/07 00:23:14;;;;;;;2.33;1.38;;;24.70;40.20;;;;;;5058899;28;20028;-61
2023/06/07 00:25:40;;;;;;;3.03;1.83;;;24.70;40.10;;;;;;5043270;28;20369;-62
2023/06/07 00:28:07;;;;;;;2.40;1.58;;;24.70;40.10;;;;;;5041894;28;20040;-65
2023/06/07 00:30:32;;;;;;;2.67;1.60;;;24.70;40.10;;;;;;5040793;28;20047;-64
2023/06/07 00:32:58;;;;;;;2.30;1.55;;;24.60;40.10;;;;;;5041804;28;20452;-67
2023/06/07 00:35:25;;;;;;;3.25;1.58;;;24.70;40.10;;;;;;5061039;28;20056;-65
2023/06/07 00:37:51;;;;;;;2.83;1.80;;;24.60;40.10;;;;;;5059858;28;20098;-62
2023/06/07 00:40:17;;;;;;;3.22;1.60;;;24.60;40.10;;;;;;5060374;28;20317;-62
2023/06/07 00:42:43;;;;;;;3.40;1.73;;;24.60;40.10;;;;;;5060595;28;20025;-63
2023/06/07 00:45:10;;;;;;;3.63;1.70;;;24.60;40.10;;;;;;5059060;28;20017;-65
2023/06/07 00:47:38;;;;;;;2.88;1.80;;;24.60;40.10;;;;;;5060054;28;20365;-65
2023/06/07 00:50:06;;;;;;;3.38;1.70;;;24.60;40.10;;;;;;5040267;28;20039;-65
2023/06/07 00:52:35;;;;;;;3.80;1.75;;;24.50;40.00;;;;;;5040553;28;20366;-67
2023/06/07 00:55:02;;;;;;;3.05;1.90;;;24.50;40.00;;;;;;5059875;28;20405;-62
2023/06/07 00:57:29;;;;;;;2.53;1.85;;;24.50;40.00;;;;;;5054314;28;20419;-66
2023/06/07 00:59:56;;;;;;;2.72;1.65;;;24.50;40.00;;;;;;5053242;28;20028;-62
2023/06/07 01:02:22;;;;;;;3.00;1.85;;;24.50;40.00;;;;;;5034139;28;20036;-64
2023/06/07 01:04:49;;;;;;;2.83;1.85;;;24.50;40.00;;;;;;5054012;28;20158;-63
2023/06/07 01:07:24;;;;;;;2.63;1.50;;;24.50;40.00;;;;;;5029755;28;20090;-64
2023/06/07 01:09:51;;;;;;;3.05;1.83;;;24.50;40.00;;;;;;5052603;28;20021;-66
2023/06/07 01:12:19;;;;;;;2.47;1.65;;;24.40;40.00;;;;;;5036679;28;20025;-62
2023/06/07 01:14:47;;;;;;;3.47;1.80;;;24.50;40.00;;;;;;5039422;28;20029;-62
2023/06/07 01:17:16;;;;;;;3.35;1.95;;;24.40;40.00;;;;;;5047094;28;20294;-65
2023/06/07 01:19:43;;;;;;;2.92;1.65;;;24.40;40.00;;;;;;5048257;28;20025;-60
2023/06/07 01:22:10;;;;;;;2.72;1.75;;;24.40;40.00;;;;;;5054529;28;20037;-63
2023/06/07 01:24:42;;;;;;;3.55;2.20;;;24.40;40.00;;;;;;5032721;28;20093;-63
2023/06/07 01:27:09;;;;;;;2.58;1.50;;;24.40;40.00;;;;;;5050139;28;20024;-62
2023/06/07 01:29:35;;;;;;;2.80;1.63;;;24.40;40.00;;;;;;5052016;28;20112;-60
2023/06/07 01:32:05;;;;;;;2.17;1.42;;;24.40;40.00;;;;;;5051248;28;20069;-62
2023/06/07 01:34:34;;;;;;;2.22;1.98;;;24.40;40.00;;;;;;5053276;28;20364;-63
2023/06/07 01:37:01;;;;;;;2.33;1.50;;;24.40;40.00;;;;;;5031702;28;20482;-64
2023/06/07 01:39:28;;;;;;;2.92;1.65;;;24.30;39.90;;;;;;5031952;28;20408;-62
2023/06/07 01:41:55;;;;;;;3.35;1.92;;;24.30;39.90;;;;;;5050654;28;20433;-66
2023/06/07 01:44:21;;;;;;;3.40;1.80;;;24.30;40.00;;;;;;5031390;28;20120;-64
2023/06/07 01:46:47;;;;;;;2.85;1.63;;;24.30;40.00;;;;;;5050834;28;20064;-64
2023/06/07 01:49:19;;;;;;;3.42;1.80;;;24.30;40.00;;;;;;5033327;28;20025;-63
2023/06/07 01:51:45;;;;;;;2.30;1.63;;;24.30;40.00;;;;;;5053195;28;20048;-63
2023/06/07 01:54:11;;;;;;;2.17;1.42;;;24.30;40.00;;;;;;5052421;28;20037;-62
2023/06/07 01:56:54;;;;;;;2.58;1.45;;;24.30;40.00;;;;;;5038272;28;20136;-62
2023/06/07 01:59:58;;;;;;;3.30;1.65;;;24.30;40.00;;;;;;5058624;28;20104;-62
2023/06/07 02:02:44;;;;;;;3.28;2.08;;;24.30;40.00;;;;;;5054499;28;20467;-66
2023/06/07 02:05:17;;;;;;;2.50;1.52;;;24.20;40.00;;;;;;5027630;28;20192;-63
2023/06/07 02:07:53;;;;;;;2.47;1.73;;;24.20;40.00;;;;;;5056128;28;20124;-61
2023/06/07 02:10:26;;;;;;;2.72;1.67;;;24.20;39.90;;;;;;5039082;28;20036;-64
2023/06/07 02:12:54;;;;;;;3.38;1.70;;;24.20;40.00;;;;;;5038261;28;20033;-64
2023/06/07 02:15:22;;;;;;;2.60;1.40;;;24.20;40.00;;;;;;5056212;28;20097;-62
2023/06/07 02:17:57;;;;;;;2.15;1.40;;;24.20;40.00;;;;;;5035201;28;20071;-63
2023/06/07 02:20:27;;;;;;;3.00;1.88;;;24.20;40.00;;;;;;5059535;28;20107;-63
2023/06/07 02:22:56;;;;;;;4.13;1.77;;;24.20;40.00;;;;;;5039192;28;20126;-61
2023/06/07 02:25:23;;;;;;;2.53;1.42;;;24.20;40.10;;;;;;5040611;28;20040;-60
2023/06/07 02:27:52;;;;;;;2.30;1.60;;;24.20;40.10;;;;;;5058749;28;20028;-64
2023/06/07 02:30:20;;;;;;;4.00;1.75;;;24.20;40.10;;;;;;5045264;28;20041;-60
2023/06/07 02:32:48;;;;;;;2.80;1.45;;;24.20;40.10;;;;;;5056841;28;20073;-62
2023/06/07 02:35:18;;;;;;;3.50;1.50;;;24.20;40.20;;;;;;5039852;28;20040;-60
2023/06/07 02:37:45;;;;;;;2.78;1.40;;;24.10;40.20;;;;;;5032105;28;20132;-64
2023/06/07 02:40:12;;;;;;;3.30;1.70;;;24.20;40.20;;;;;;5054345;28;20042;-65
2023/06/07 02:42:38;;;;;;;2.80;1.50;;;24.10;40.20;;;;;;5036330;28;20398;-63
2023/06/07 02:45:05;;;;;;;2.70;1.27;;;24.10;40.20;;;;;;5051176;28;20419;-63
2023/06/07 02:47:31;;;;;;;2.45;1.25;;;24.10;40.10;;;;;;5033464;28;20102;-65
2023/06/07 02:49:58;;;;;;;3.15;1.40;;;24.10;40.10;;;;;;5035324;28;20025;-61
2023/06/07 02:52:25;;;;;;;2.28;1.30;;;24.10;40.10;;;;;;5041438;28;20458;-66
2023/06/07 02:54:51;;;;;;;3.75;1.67;;;24.10;40.10;;;;;;5042983;28;20661;-63
2023/06/07 02:57:17;;;;;;;2.83;1.90;;;24.10;40.10;;;;;;5035236;28;20041;-61
2023/06/07 02:59:44;;;;;;;3.45;1.45;;;24.10;40.10;;;;;;5032403;28;20314;-62
2023/06/07 03:02:15;;;;;;;2.55;1.35;;;24.10;40.10;;;;;;5032481;28;20083;-64
2023/06/07 03:04:46;;;;;;;5.57;1.60;;;24.10;40.10;;;;;;5034738;28;20025;-63
2023/06/07 03:07:13;;;;;;;3.45;1.67;;;24.10;40.10;;;;;;5032186;28;20107;-67
2023/06/07 03:09:41;;;;;;;3.13;1.30;;;24.10;40.10;;;;;;5032790;28;20029;-64
2023/06/07 03:12:08;;;;;;;2.85;1.65;;;24.00;40.00;;;;;;5030584;28;20025;-63
2023/06/07 03:14:41;;;;;;;3.65;1.50;;;24.00;40.00;;;;;;5032890;28;20025;-64
2023/06/07 03:17:11;;;;;;;2.92;1.38;;;24.00;40.00;;;;;;5037069;28;20040;-60
2023/06/07 03:19:38;;;;;;;2.70;1.30;;;24.00;40.00;;;;;;5035392;28;20128;-64
2023/06/07 03:22:06;;;;;;;3.13;1.35;;;24.00;40.00;;;;;;5035438;28;20309;-62
2023/06/07 03:24:38;;;;;;;2.38;1.27;;;24.00;40.00;;;;;;5040891;28;20109;-63
2023/06/07 03:27:11;;;;;;;2.92;1.70;;;24.00;40.00;;;;;;5035422;28;20104;-64
2023/06/07 03:29:40;;;;;;;3.70;1.20;;;24.00;40.00;;;;;;5036032;28;20029;-62
2023/06/07 03:32:07;;;;;;;2.70;1.33;;;24.00;40.00;;;;;;5040579;28;20360;-63
2023/06/07 03:34:36;;;;;;;2.75;1.50;;;24.00;40.00;;;;;;5042149;28;20029;-61
2023/06/07 03:37:04;;;;;;;2.80;1.55;;;24.00;40.00;;;;;;5041014;28;20048;-66
2023/06/07 03:39:32;;;;;;;2.20;1.05;;;24.00;40.00;;;;;;5042234;28;20057;-65
2023/06/07 03:41:59;;;;;;;3.22;1.45;;;23.90;40.00;;;;;;5042638;28;20035;-61
2023/06/07 03:44:26;;;;;;;2.50;1.27;;;24.00;40.00;;;;;;5041321;28;20054;-62
2023/06/07 03:46:53;;;;;;;2.15;1.30;;;24.00;40.00;;;;;;5033809;28;21541;-63
2023/06/07 03:49:19;;;;;;;1.45;1.23;;;23.90;40.00;;;;;;5042617;28;20154;-62
2023/06/07 03:51:46;;;;;;;2.25;1.20;;;23.90;40.00;;;;;;5032288;28;20086;-62
2023/06/07 03:54:14;;;;;;;2.85;1.55;;;23.90;40.00;;;;;;5042303;28;20098;-61
2023/06/07 03:56:41;;;;;;;3.92;1.48;;;23.90;40.00;;;;;;5042907;28;20104;-64
2023/06/07 03:59:12;;;;;;;2.08;1.35;;;23.90;40.00;;;;;;5039631;28;20105;-62
2023/06/07 04:01:40;;;;;;;1.90;1.30;;;23.90;40.00;;;;;;5040890;28;20365;-66
2023/06/07 04:04:09;;;;;;;2.92;1.40;;;23.90;40.00;;;;;;5053145;28;20043;-67
2023/06/07 04:06:36;;;;;;;2.35;1.25;;;23.90;40.00;;;;;;5057701;28;20042;-60
2023/06/07 04:09:04;;;;;;;4.00;1.55;;;23.90;40.00;;;;;;5032454;28;20069;-63
2023/06/07 04:11:29;;;;;;;2.70;1.35;;;23.90;40.00;;;;;;5036209;28;20294;-62
2023/06/07 04:13:55;;;;;;;2.95;1.20;;;23.90;40.00;;;;;;5058549;28;20314;-65
2023/06/07 04:16:25;;;;;;;1.83;1.00;;;23.90;40.00;;;;;;5038517;28;20089;-64
2023/06/07 04:18:51;;;;;;;2.15;1.02;;;23.90;40.00;;;;;;5055661;28;20366;-63
2023/06/07 04:21:17;;;;;;;2.60;1.30;;;23.80;39.90;;;;;;5042042;28;20371;-63
2023/06/07 04:23:45;;;;;;;2.92;1.33;;;23.80;39.90;;;;;;5042789;28;20396;-67
2023/06/07 04:26:18;;;;;;;1.92;1.50;;;23.80;40.00;;;;;;5040679;28;20036;-62
2023/06/07 04:28:45;;;;;;;2.75;1.75;;;23.80;40.00;;;;;;5042562;28;20024;-63
2023/06/07 04:31:13;;;;;;;2.70;1.35;;;23.80;40.00;;;;;;5044448;28;20104;-62
2023/06/07 04:33:40;;;;;;;3.35;1.27;;;23.80;40.00;;;;;;5040721;28;20052;-65
2023/06/07 04:36:08;;;;;;;2.45;1.38;;;23.80;40.00;;;;;;5042600;28;20029;-63
2023/06/07 04:38:41;;;;;;;2.40;1.13;;;23.80;40.00;;;;;;5040803;28;20425;-62
2023/06/07 04:41:08;;;;;;;2.03;1.27;;;23.80;40.00;;;;;;5044118;28;20392;-62
2023/06/07 04:43:42;;;;;;;2.80;1.27;;;23.80;40.00;;;;;;5036158;28;20322;-62
2023/06/07 04:46:10;;;;;;;3.13;1.50;;;23.80;40.00;;;;;;5032947;28;20044;-63
2023/06/07 04:48:40;;;;;;;3.10;1.70;;;23.80;40.00;;;;;;5033124;28;20037;-64
2023/06/07 04:51:07;;;;;;;2.92;1.50;;;23.80;40.00;;;;;;5036418;28;20041;-61
2023/06/07 04:53:42;;;;;;;2.87;1.40;;;23.80;40.00;;;;;;5038665;28;20397;-65
2023/06/07 04:56:11;;;;;;;3.38;1.50;;;23.80;40.00;;;;;;5034888;28;20093;-60
2023/06/07 04:58:40;;;;;;;2.78;1.33;;;23.80;40.00;;;;;;5030975;28;20109;-63
2023/06/07 05:01:10;;;;;;;2.70;1.30;;;23.80;40.00;;;;;;5055396;28;20029;-61
2023/06/07 05:03:43;;;;;;;3.00;1.27;;;23.80;40.00;;;;;;5041748;28;20037;-63
2023/06/07 05:06:11;;;;;;;1.98;1.15;;;23.80;40.00;;;;;;5039851;28;20029;-65
2023/06/07 05:08:37;;;;;;;2.05;1.10;;;23.80;40.00;;;;;;5040556;28;20050;-61
2023/06/07 05:11:04;;;;;;;3.17;1.20;;;23.80;40.00;;;;;;5041052;28;20355;-62
2023/06/07 05:13:31;;;;;;;1.92;1.00;;;23.80;40.00;;;;;;5058776;28;20037;-64
2023/06/07 05:16:01;;;;;;;2.53;1.17;;;23.80;40.00;;;;;;5059000;28;20416;-60
2023/06/07 05:18:28;;;;;;;1.58;1.10;;;23.80;40.00;;;;;;5037727;28;20037;-65
2023/06/07 05:20:55;;;;;;;3.03;1.35;;;23.80;40.00;;;;;;5041365;28;20021;-64
2023/06/07 05:23:21;;;;;;;1.83;1.08;;;23.80;40.10;;;;;;5058251;28;20427;-61
2023/06/07 05:25:51;;;;;;;3.55;1.30;;;23.80;40.00;;;;;;5041612;28;20518;-65
2023/06/07 05:28:18;;;;;;;3.90;1.50;;;23.80;40.00;;;;;;5038941;28;20028;-62
2023/06/07 05:30:49;;;;;;;2.85;1.30;;;23.80;40.00;;;;;;5039783;28;20031;-63
2023/06/07 05:33:17;;;;;;;2.47;1.15;;;23.80;40.00;;;;;;5039648;28;20116;-61
2023/06/07 05:35:46;;;;;;;2.42;1.10;;;23.80;40.00;;;;;;5039765;28;20351;-62
2023/06/07 05:38:13;;;;;;;2.90;1.30;;;23.80;40.00;;;;;;5041091;28;20123;-61
2023/06/07 05:40:40;;;;;;;1.50;1.17;;;23.90;40.00;;;;;;5033529;28;20105;-62
2023/06/07 05:43:06;;;;;;;3.42;1.15;;;23.90;40.00;;;;;;5048334;28;20040;-63
2023/06/07 05:45:32;;;;;;;1.90;1.25;;;23.80;40.00;;;;;;5028571;28;20025;-66
2023/06/07 05:47:58;;;;;;;3.33;1.15;;;23.90;40.10;;;;;;5030360;28;20529;-61
2023/06/07 05:50:24;;;;;;;3.65;1.40;;;23.90;40.10;;;;;;5029949;28;20025;-65
2023/06/07 05:52:58;;;;;;;3.55;1.73;;;23.90;40.10;;;;;;5033541;28;20025;-62
2023/06/07 05:55:27;;;;;;;2.63;1.25;;;23.90;40.10;;;;;;5054102;28;20036;-65
2023/06/07 05:57:55;;;;;;;3.72;1.63;;;23.90;40.10;;;;;;5052117;28;20060;-65
2023/06/07 06:00:21;;;;;;;3.42;1.48;;;23.90;40.10;;;;;;5056621;28;20107;-63
2023/06/07 06:02:46;;;;;;;2.50;1.10;;;23.90;40.20;;;;;;5047933;28;20152;-62
2023/06/07 06:05:13;;;;;;;3.03;1.50;;;23.90;40.20;;;;;;5055261;28;20040;-61
2023/06/07 06:07:39;;;;;;;3.47;1.90;;;23.90;40.20;;;;;;5056058;28;20024;-62
2023/06/07 06:10:06;;;;;;;5.63;1.80;;;23.90;40.20;;;;;;5057894;28;20037;-63
2023/06/07 06:12:31;;;;;;;2.70;1.70;;;23.90;40.30;;;;;;5033643;28;20079;-62
2023/06/07 06:14:58;;;;;;;4.57;2.00;;;23.90;40.40;;;;;;5037402;28;20085;-63
2023/06/07 06:17:24;;;;;;;3.92;1.77;;;23.90;40.60;;;;;;5057916;28;20430;-61
2023/06/07 06:19:50;;;;;;;4.13;1.95;;;23.90;40.60;;;;;;5036576;28;20157;-62
2023/06/07 06:22:16;;;;;;;4.18;1.70;;;23.90;40.60;;;;;;5053216;28;20060;-64
2023/06/07 06:24:42;;;;;;;3.03;1.77;;;23.90;40.70;;;;;;5058507;28;20033;-65
2023/06/07 06:27:09;;;;;;;3.60;1.50;;;23.90;40.70;;;;;;5054176;28;20356;-63
2023/06/07 06:29:35;;;;;;;3.65;1.63;;;24.00;40.70;;;;;;5054607;28;20037;-64
2023/06/07 06:32:01;;;;;;;3.42;1.73;;;23.90;40.70;;;;;;5053509;28;20032;-63
2023/06/07 06:34:28;;;;;;;3.38;1.80;;;23.90;40.70;;;;;;5053203;28;20400;-61
2023/06/07 06:36:54;;;;;;;3.92;1.83;;;24.00;40.70;;;;;;5039476;28;20064;-64
2023/06/07 06:39:22;;;;;;;4.65;1.80;;;24.00;40.70;;;;;;5051323;28;20025;-64
2023/06/07 06:41:47;;;;;;;3.97;1.85;;;24.00;40.70;;;;;;5051820;28;20154;-61
2023/06/07 06:44:20;;;;;;;4.07;1.75;;;24.00;40.70;;;;;;5043205;28;20436;-62
2023/06/07 06:46:46;;;;;;;3.53;1.90;;;24.00;40.70;;;;;;5052910;28;20041;-61
2023/06/07 06:49:11;;;;;;;4.68;1.70;;;24.00;40.60;;;;;;5034320;28;20084;-60
2023/06/07 06:51:37;;;;;;;2.88;1.50;;;24.00;40.60;;;;;;5055485;28;20080;-62
2023/06/07 06:54:03;;;;;;;4.20;1.70;;;24.00;40.60;;;;;;5055935;28;20347;-60
2023/06/07 06:56:29;;;;;;;2.90;1.65;;;24.00;40.60;;;;;;5038586;28;20028;-62
2023/06/07 06:58:55;;;;;;;3.33;1.80;;;24.00;40.60;;;;;;5055703;28;20053;-62
2023/06/07 07:01:21;;;;;;;4.57;1.88;;;24.00;40.50;;;;;;5060215;28;20098;-64
2023/06/07 07:03:47;;;;;;;3.95;1.75;;;24.00;40.50;;;;;;5060977;28;20370;-62
2023/06/07 07:06:13;;;;;;;4.07;1.95;;;24.00;40.50;;;;;;5042418;28;20073;-62
2023/06/07 07:08:41;;;;;;;3.20;1.77;;;24.00;40.60;;;;;;5036607;28;20021;-65
2023/06/07 07:11:07;;;;;;;3.35;1.58;;;23.90;40.60;;;;;;5059468;28;20043;-64
2023/06/07 07:13:33;;;;;;;4.38;1.92;;;24.00;40.70;;;;;;5060106;28;20059;-62
2023/06/07 07:16:00;;;;;;;6.30;2.50;;;23.90;40.60;;;;;;5061250;28;20119;-65
2023/06/07 07:18:26;;;;;;;4.93;2.17;;;24.00;40.70;;;;;;5058125;28;20380;-63
2023/06/07 07:20:52;;;;;;;7.57;2.80;;;24.00;40.70;;;;;;5059693;28;20344;-62
2023/06/07 07:23:19;;;;;;;7.13;3.35;;;23.90;40.70;;;;;;5061396;28;20049;-62
2023/06/07 07:25:45;;;;;;;8.38;2.92;;;23.90;40.80;;;;;;5062281;28;20032;-65
2023/06/07 07:28:12;;;;;;;11.15;3.72;;;24.00;41.00;;;;;;5065085;28;20118;-64
2023/06/07 07:30:38;;;;;;;7.75;3.40;;;24.00;41.10;;;;;;5059390;28;20089;-65
2023/06/07 07:33:04;;;;;;;6.32;2.80;;;23.90;41.10;;;;;;5038399;28;20433;-62
2023/06/07 07:35:29;;;;;;;3.50;2.00;;;23.90;41.10;;;;;;5056489;28;20148;-65
2023/06/07 07:37:55;;;;;;;4.72;2.03;;;23.90;41.10;;;;;;5059288;28;20033;-65
2023/06/07 07:40:21;;;;;;;4.60;2.10;;;24.00;41.20;;;;;;5066016;28;20056;-65
2023/06/07 07:42:47;;;;;;;6.53;2.55;;;23.90;41.20;;;;;;5037226;28;20118;-64
2023/06/07 07:45:14;;;;;;;5.10;2.40;;;23.90;41.20;;;;;;5055252;28;20036;-62
2023/06/07 07:47:40;;;;;;;5.15;2.22;;;23.90;41.20;;;;;;5055928;28;20401;-64
2023/06/07 07:50:07;;;;;;;4.25;2.58;;;23.90;41.30;;;;;;5058768;28;20040;-64
2023/06/07 07:52:33;;;;;;;4.70;2.20;;;24.00;41.40;;;;;;5058480;28;20044;-67
2023/06/07 07:54:59;;;;;;;5.90;2.55;;;24.00;41.40;;;;;;5059564;28;20408;-64
2023/06/07 07:57:25;;;;;;;4.18;2.20;;;23.90;41.40;;;;;;5058039;28;20412;-64
2023/06/07 07:59:51;;;;;;;4.28;1.90;;;24.00;41.40;;;;;;5058669;28;20094;-65
2023/06/07 08:02:17;;;;;;;4.65;2.08;;;24.00;41.50;;;;;;5058789;28;20120;-64
2023/06/07 08:04:43;;;;;;;3.90;2.13;;;24.00;41.40;;;;;;5058040;28;20032;-64
2023/06/07 08:07:10;;;;;;;4.22;1.95;;;24.00;41.40;;;;;;5037829;28;20048;-66
2023/06/07 08:09:36;;;;;;;5.45;2.33;;;24.00;41.40;;;;;;5059634;28;20126;-62
2023/06/07 08:12:02;;;;;;;4.18;2.13;;;24.00;41.40;;;;;;5058022;28;20041;-64
2023/06/07 08:14:27;;;;;;;4.30;2.00;;;24.00;41.40;;;;;;5060809;28;20082;-65
2023/06/07 08:16:53;;;;;;;4.15;2.10;;;24.00;41.40;;;;;;5058591;28;20473;-66
2023/06/07 08:19:19;;;;;;;3.45;1.70;;;24.10;41.50;;;;;;5058008;28;20373;-66
2023/06/07 08:21:47;;;;;;;3.83;2.13;;;24.10;41.40;;;;;;5055769;28;20056;-64
2023/06/07 08:24:13;;;;;;;3.17;1.58;;;24.10;41.40;;;;;;5058511;28;20043;-64
2023/06/07 08:26:38;;;;;;;4.25;1.60;;;24.10;41.40;;;;;;5060223;28;20095;-63
2023/06/07 08:29:05;;;;;;;3.10;1.77;;;24.10;41.40;;;;;;5057419;28;20093;-66
2023/06/07 08:31:31;;;;;;;3.50;1.77;;;24.10;41.30;;;;;;5040446;28;20104;-69
2023/06/07 08:33:57;;;;;;;4.03;1.92;;;24.10;41.30;;;;;;5058305;28;20044;-62
2023/06/07 08:36:23;;;;;;;4.70;2.25;;;24.10;41.20;;;;;;5058170;28;20062;-68
2023/06/07 08:38:49;;;;;;;2.28;1.73;;;24.10;41.10;;;;;;5057375;28;20103;-64
2023/06/07 08:41:15;;;;;;;3.35;1.60;;;24.10;41.10;;;;;;5057864;28;20104;-64
2023/06/07 08:43:44;;;;;;;2.67;1.60;;;24.10;41.10;;;;;;5054713;28;20025;-65
2023/06/07 08:46:12;;;;;;;3.20;1.60;;;24.10;41.10;;;;;;5040800;28;20471;-63
2023/06/07 08:48:39;;;;;;;3.13;1.73;;;24.10;41.10;;;;;;5057024;28;20036;-65
2023/06/07 08:51:08;;;;;;;2.63;1.70;;;24.10;41.00;;;;;;5058860;28;20020;-64
2023/06/07 08:53:47;;;;;;;2.67;1.45;;;24.10;41.00;;;;;;5053415;28;20131;-61
2023/06/07 08:56:15;;;;;;;3.65;1.63;;;24.10;41.00;;;;;;5038990;28;20029;-66
2023/06/07 08:58:41;;;;;;;2.88;1.75;;;24.10;41.00;;;;;;5054383;28;20089;-65
2023/06/07 09:01:08;;;;;;;2.28;1.60;;;24.10;41.00;;;;;;5059136;28;20443;-64
2023/06/07 09:03:33;;;;;;;3.38;1.70;;;24.10;41.00;;;;;;5040693;28;20044;-63
2023/06/07 09:06:01;;;;;;;4.32;1.85;;;24.10;41.00;;;;;;5056146;28;20024;-64
2023/06/07 09:08:27;;;;;;;3.35;1.70;;;24.10;41.00;;;;;;5036624;28;20029;-64
2023/06/07 09:10:53;;;;;;;5.10;1.70;;;24.10;40.90;;;;;;5055859;28;20425;-64
2023/06/07 09:13:20;;;;;;;2.72;1.80;;;24.10;40.90;;;;;;5058024;28;20435;-67
2023/06/07 09:15:49;;;;;;;3.47;1.75;;;24.10;41.00;;;;;;5059155;28;20093;-62
2023/06/07 09:18:15;;;;;;;3.17;1.75;;;24.10;40.90;;;;;;5054612;28;20361;-64
2023/06/07 09:20:41;;;;;;;2.90;1.70;;;24.10;40.90;;;;;;5058410;28;20021;-67
2023/06/07 09:23:09;;;;;;;2.75;1.50;;;24.10;40.90;;;;;;5057041;28;20021;-67
2023/06/07 09:25:37;;;;;;;2.50;1.63;;;24.10;40.90;;;;;;5058650;28;20036;-65
2023/06/07 09:28:04;;;;;;;3.75;1.70;;;24.10;40.90;;;;;;5038305;28;20075;-64
2023/06/07 09:30:30;;;;;;;3.25;1.90;;;24.20;41.00;;;;;;5059091;28;20070;-64
2023/06/07 09:32:56;;;;;;;2.88;1.80;;;24.20;41.00;;;;;;5058274;28;20135;-63
2023/06/07 09:35:22;;;;;;;3.28;1.88;;;24.20;41.00;;;;;;5057180;28;20135;-64
2023/06/07 09:37:57;;;;;;;2.72;1.38;;;24.20;41.20;;;;;;5059169;28;20449;-65
2023/06/07 09:40:23;;;;;;;3.85;2.30;;;24.20;41.00;;;;;;5059273;28;20078;-63
2023/06/07 09:42:59;;;;;;;3.13;1.80;;;24.20;41.00;;;;;;5054694;28;20032;-61
2023/06/07 09:45:26;;;;;;;2.53;1.63;;;24.20;41.00;;;;;;5054846;28;20033;-63
2023/06/07 09:48:09;;;;;;;2.88;1.70;;;24.20;41.00;;;;;;5058159;28;20033;-64
2023/06/07 09:50:35;;;;;;;3.08;1.95;;;24.20;41.00;;;;;;5057450;28;20033;-67
2023/06/07 09:53:01;;;;;;;3.53;1.73;;;24.20;41.00;;;;;;5056540;28;20032;-65
2023/06/07 09:55:28;;;;;;;3.08;1.75;;;24.20;41.00;;;;;;5056856;28;20062;-65
2023/06/07 09:57:57;;;;;;;3.00;1.70;;;24.20;41.00;;;;;;5057850;28;20480;-62
2023/06/07 10:00:25;;;;;;;3.15;1.85;;;24.20;41.00;;;;;;5038529;28;20324;-64
2023/06/07 10:02:51;;;;;;;2.80;2.15;;;24.20;40.90;;;;;;5058977;28;20052;-65
2023/06/07 10:05:21;;;;;;;3.25;1.80;;;24.20;41.00;;;;;;5038916;28;20058;-66
2023/06/07 10:07:49;;;;;;;2.42;1.60;;;24.30;41.00;;;;;;5052043;28;20053;-64
2023/06/07 10:10:17;;;;;;;3.00;1.65;;;24.30;41.00;;;;;;5041216;28;20335;-65
2023/06/07 10:12:46;;;;;;;2.97;1.80;;;24.30;41.00;;;;;;5058319;28;20080;-63
2023/06/07 10:15:19;;;;;;;2.03;1.60;;;24.30;41.00;;;;;;5061481;28;20323;-64
2023/06/07 10:17:55;;;;;;;2.80;1.85;;;24.30;41.00;;;;;;5051308;28;20151;-63
2023/06/07 10:20:28;;;;;;;2.92;1.88;;;24.30;41.00;;;;;;5060880;28;20044;-66
2023/06/07 10:23:06;;;;;;;3.47;1.75;;;24.30;41.00;;;;;;5058723;28;20028;-64
2023/06/07 10:25:45;;;;;;;3.67;1.88;;;24.30;41.00;;;;;;5039762;28;20118;-66
2023/06/07 10:28:39;;;;;;;3.20;1.70;;;24.30;41.10;;;;;;5040548;28;20128;-68
2023/06/07 10:31:09;;;;;;;2.60;1.60;;;24.30;41.00;;;;;;5054414;28;20021;-64
2023/06/07 10:33:36;;;;;;;2.70;1.95;;;24.30;41.10;;;;;;5060582;28;20051;-66
2023/06/07 10:36:03;;;;;;;2.85;1.80;;;24.30;41.00;;;;;;5054599;28;20036;-66
2023/06/07 10:38:33;;;;;;;3.25;1.90;;;24.40;41.10;;;;;;5049575;28;20044;-65
2023/06/07 10:41:01;;;;;;;4.68;1.88;;;24.40;41.00;;;;;;5051284;28;20107;-65
2023/06/07 10:43:29;;;;;;;3.30;1.83;;;24.40;41.00;;;;;;5049344;28;20120;-67
2023/06/07 10:46:22;;;;;;;2.70;1.70;;;24.40;41.00;;;;;;5050517;28;20087;-64
2023/06/07 10:48:49;;;;;;;2.75;1.63;;;24.40;40.90;;;;;;5062162;28;20058;-67
2023/06/07 10:51:15;;;;;;;2.72;1.77;;;24.40;40.90;;;;;;5058577;28;20029;-63
2023/06/07 10:53:52;;;;;;;3.45;1.70;;;24.40;40.90;;;;;;5062635;28;20035;-67
2023/06/07 10:56:30;;;;;;;4.07;1.80;;;24.50;41.00;;;;;;5068327;28;20066;-67
2023/06/07 10:59:16;;;;;;;3.25;1.75;;;24.50;41.10;;;;;;5057149;28;20119;-70
2023/06/07 11:02:12;;;;;;;3.45;1.70;;;24.50;41.10;;;;;;5063637;28;20446;-66
2023/06/07 11:04:51;;;;;;;3.33;1.83;;;24.50;41.10;;;;;;5051992;28;20063;-66
2023/06/07 11:07:27;;;;;;;3.40;1.50;;;24.60;41.10;;;;;;5070116;28;20013;-64
2023/06/07 11:10:13;;;;;;;2.63;1.50;;;24.50;41.00;;;;;;5061299;28;20063;-66
2023/06/07 11:12:58;;;;;;;5.10;1.67;;;24.50;41.00;;;;;;5053378;28;20068;-68
2023/06/07 11:15:30;;;;;;;;;;;24.60;41.00;;;;;;5059033;28;20036;-67
2023/06/07 11:18:13;;;;;;;2.67;1.20;;;24.60;41.00;;;;;;5060959;28;20220;-68
2023/06/07 11:20:45;;;;;;;3.35;1.67;;;24.50;40.90;;;;;;5070756;28;20135;-66
2023/06/07 11:23:36;;;;;;;3.20;1.48;;;24.60;40.90;;;;;;5055213;28;20086;-66
2023/06/07 11:26:13;;;;;;;3.45;1.70;;;24.60;40.80;;;;;;5052513;28;20068;-64
2023/06/07 11:28:42;;;;;;;2.47;1.63;;;24.60;40.80;;;;;;5052251;28;20033;-66
2023/06/07 11:31:13;;;;;;;2.60;1.70;;;24.60;40.80;;;;;;5034562;28;20105;-67
2023/06/07 11:33:43;;;;;;;2.95;1.77;;;24.60;40.80;;;;;;5058699;28;20341;-67
2023/06/07 11:36:10;;;;;;;3.00;1.55;;;24.60;40.80;;;;;;5058820;28;20059;-66
2023/06/07 11:38:38;;;;;;;2.95;1.63;;;24.60;40.80;;;;;;5056936;28;20420;-65
2023/06/07 11:41:06;;;;;;;2.55;1.60;;;24.60;40.80;;;;;;5064465;28;20158;-69
2023/06/07 11:43:33;;;;;;;2.40;1.40;;;24.60;40.70;;;;;;5064027;28;20061;-67
2023/06/07 11:45:59;;;;;;;3.88;1.88;;;24.60;40.80;;;;;;5065522;28;20045;-64
2023/06/07 11:48:27;;;;;;;2.42;1.38;;;24.70;40.80;;;;;;5064044;28;20159;-67
2023/06/07 11:50:55;;;;;;;2.80;1.60;;;24.70;40.90;;;;;;5070300;28;20060;-67
2023/06/07 11:53:31;;;;;;;2.42;1.40;;;24.70;40.90;;;;;;5053914;28;20025;-62
2023/06/07 11:56:00;;;;;;;2.83;1.80;;;24.70;40.90;;;;;;5052701;28;20036;-64
2023/06/07 11:58:27;;;;;;;4.80;1.90;;;24.70;40.90;;;;;;5060264;28;20033;-62
2023/06/07 12:00:53;;;;;;;2.97;1.70;;;24.70;40.90;;;;;;5070580;28;20044;-61
2023/06/07 12:03:22;;;;;;;2.58;1.88;;;24.70;40.90;;;;;;5066858;28;20097;-62
2023/06/07 12:05:49;;;;;;;2.95;1.48;;;24.70;40.90;;;;;;5051485;28;20021;-62
2023/06/07 12:08:17;;;;;;;4.25;1.63;;;24.80;40.90;;;;;;5032991;28;20349;-65
2023/06/07 12:10:54;;;;;;;2.03;1.52;;;24.80;40.90;;;;;;5051556;28;20081;-62
2023/06/07 12:13:21;;;;;;;3.85;1.77;;;24.80;40.90;;;;;;5051344;28;20135;-63
2023/06/07 12:15:53;;;;;;;2.35;1.40;;;24.80;41.00;;;;;;5051401;28;20048;-62
2023/06/07 12:18:23;;;;;;;3.08;1.50;;;24.80;41.00;;;;;;5033150;28;20463;-63
2023/06/07 12:21:00;;;;;;;3.22;1.80;;;24.80;41.00;;;;;;5051426;28;20104;-62
2023/06/07 12:23:25;;;;;;;3.83;1.40;;;24.80;41.10;;;;;;5051304;28;20032;-61
2023/06/07 12:26:06;;;;;;;2.90;1.60;;;24.80;41.10;;;;;;5050632;28;20402;-62
2023/06/07 12:28:33;;;;;;;3.35;1.77;;;24.80;41.10;;;;;;5051364;28;20348;-62
2023/06/07 12:30:59;;;;;;;2.85;1.73;;;24.80;41.10;;;;;;5051061;28;20341;-64
2023/06/07 12:33:29;;;;;;;2.50;1.48;;;24.90;41.20;;;;;;5051080;28;20091;-62
2023/06/07 12:35:59;;;;;;;4.82;2.10;;;24.90;41.20;;;;;;5051067;28;20029;-64
2023/06/07 12:38:25;;;;;;;2.58;1.50;;;24.90;41.30;;;;;;5050947;28;20087;-60
2023/06/07 12:40:51;;;;;;;2.88;2.05;;;24.90;41.20;;;;;;5051081;28;20032;-60
2023/06/07 12:43:17;;;;;;;2.97;1.65;;;24.90;41.30;;;;;;5051051;28;20108;-61
2023/06/07 12:45:43;;;;;;;3.25;1.60;;;24.90;41.30;;;;;;5049796;28;20405;-60
2023/06/07 12:48:09;;;;;;;2.65;1.77;;;24.90;41.30;;;;;;5050758;28;20036;-63
2023/06/07 12:50:36;;;;;;;2.17;1.40;;;24.90;41.30;;;;;;5049982;28;20100;-60
2023/06/07 12:53:01;;;;;;;3.33;1.80;;;24.90;41.40;;;;;;5061092;28;20025;-61
2023/06/07 12:55:27;;;;;;;2.55;1.52;;;24.90;41.30;;;;;;5050580;28;20042;-61